createdAt,value
2023-09-23T00:01:41.456Z,16.15
2023-09-23T00:04:09.539Z,16.09
2023-09-23T00:06:38.277Z,16.04
2023-09-23T00:09:09.216Z,16.07
2023-09-23T00:11:38.440Z,16.11
2023-09-23T00:14:06.987Z,16.10
2023-09-23T00:16:36.517Z,16.16
2023-09-23T00:19:05.060Z,16.27
2023-09-23T00:21:33.198Z,16.25
2023-09-23T00:24:03.082Z,16.20
2023-09-23T00:26:31.017Z,16.33
2023-09-23T00:28:58.990Z,16.29
2023-09-23T00:31:27.306Z,16.36
2023-09-23T00:33:56.616Z,16.48
2023-09-23T00:36:25.802Z,16.48
2023-09-23T00:38:53.904Z,16.59
2023-09-23T00:41:21.945Z,16.59
2023-09-23T00:43:51.737Z,16.66
2023-09-23T00:46:24.113Z,16.73
2023-09-23T00:48:52.586Z,16.47
2023-09-23T00:51:22.648Z,16.47
2023-09-23T00:53:51.856Z,16.52
2023-09-23T00:56:24.547Z,16.60
2023-09-23T00:58:53.125Z,16.52
2023-09-23T01:01:22.285Z,16.45
2023-09-23T01:03:51.157Z,16.45
2023-09-23T01:06:20.338Z,16.45
2023-09-23T01:08:51.646Z,16.51
2023-09-23T01:11:20.077Z,16.56
2023-09-23T01:13:51.313Z,16.56
2023-09-23T01:16:19.610Z,16.61
2023-09-23T01:18:50.230Z,16.60
2023-09-23T01:21:19.753Z,16.57
2023-09-23T01:23:49.243Z,16.60
2023-09-23T01:26:17.756Z,16.71
2023-09-23T01:28:46.938Z,16.70
2023-09-23T01:31:15.168Z,16.70
2023-09-23T01:33:43.210Z,16.69
2023-09-23T01:36:12.940Z,16.71
2023-09-23T01:38:42.303Z,16.69
2023-09-23T01:41:11.692Z,16.77
2023-09-23T01:43:39.710Z,16.74
2023-09-23T01:46:08.665Z,16.72
2023-09-23T01:48:37.941Z,16.74
2023-09-23T01:51:07.653Z,16.74
2023-09-23T01:53:35.788Z,16.73
2023-09-23T01:56:03.818Z,16.77
2023-09-23T01:58:34.361Z,16.82
2023-09-23T02:01:05.360Z,16.77
2023-09-23T02:03:35.324Z,16.77
2023-09-23T02:06:03.989Z,16.70
2023-09-23T02:08:31.884Z,16.66
2023-09-23T02:10:59.877Z,16.68
2023-09-23T02:13:29.487Z,16.65
2023-09-23T02:15:59.933Z,16.64
2023-09-23T02:18:28.785Z,16.54
2023-09-23T02:20:57.532Z,16.49
2023-09-23T02:23:25.613Z,16.55
2023-09-23T02:25:54.057Z,16.51
2023-09-23T02:28:21.936Z,16.53
2023-09-23T02:30:49.846Z,16.54
2023-09-23T02:33:19.040Z,16.56
2023-09-23T02:35:46.854Z,16.64
2023-09-23T02:38:14.837Z,16.67
2023-09-23T02:40:44.837Z,16.69
2023-09-23T02:43:13.674Z,16.71
2023-09-23T02:45:41.592Z,16.67
2023-09-23T02:48:09.947Z,16.63
2023-09-23T02:50:39.300Z,16.64
2023-09-23T02:53:07.269Z,16.69
2023-09-23T02:55:35.418Z,16.71
2023-09-23T02:58:03.498Z,16.75
2023-09-23T03:00:34.290Z,16.70
2023-09-23T03:03:07.796Z,16.72
2023-09-23T03:05:40.217Z,16.70
2023-09-23T03:08:15.249Z,16.59
2023-09-23T03:10:46.115Z,16.64
2023-09-23T03:13:14.299Z,16.64
2023-09-23T03:15:46.306Z,16.60
2023-09-23T03:18:16.289Z,16.58
2023-09-23T03:20:44.570Z,16.60
2023-09-23T03:23:13.907Z,16.64
2023-09-23T03:25:46.965Z,16.64
2023-09-23T03:28:17.188Z,16.66
2023-09-23T03:30:48.901Z,16.70
2023-09-23T03:33:19.584Z,16.73
2023-09-23T03:35:47.931Z,16.73
2023-09-23T03:38:17.957Z,16.71
2023-09-23T03:40:52.599Z,16.77
2023-09-23T03:43:20.884Z,16.79
2023-09-23T03:45:49.156Z,16.81
2023-09-23T03:48:17.350Z,16.83
2023-09-23T03:50:45.456Z,16.85
2023-09-23T03:53:13.652Z,16.87
2023-09-23T03:55:43.321Z,16.86
2023-09-23T03:58:12.350Z,16.84
2023-09-23T04:00:40.304Z,16.85
2023-09-23T04:03:08.202Z,16.90
2023-09-23T04:05:36.054Z,16.88
2023-09-23T04:08:04.219Z,16.85
2023-09-23T04:10:32.239Z,16.71
2023-09-23T04:13:01.524Z,16.60
2023-09-23T04:15:29.417Z,16.66
2023-09-23T04:17:57.368Z,16.71
2023-09-23T04:20:25.282Z,16.71
2023-09-23T04:22:53.234Z,16.76
2023-09-23T04:25:22.791Z,16.81
2023-09-23T04:27:52.010Z,16.77
2023-09-23T04:30:21.434Z,16.82
2023-09-23T04:32:49.685Z,16.79
2023-09-23T04:35:18.538Z,16.78
2023-09-23T04:37:46.551Z,16.71
2023-09-23T04:40:16.409Z,16.67
2023-09-23T04:42:45.334Z,16.62
2023-09-23T04:45:13.777Z,16.53
2023-09-23T04:47:46.929Z,16.45
2023-09-23T04:50:16.411Z,16.40
2023-09-23T04:52:44.305Z,16.36
2023-09-23T04:55:12.690Z,16.42
2023-09-23T04:57:40.890Z,16.43
2023-09-23T05:00:11.798Z,16.49
2023-09-23T05:02:41.982Z,16.49
2023-09-23T05:05:13.143Z,16.51
2023-09-23T05:07:41.570Z,16.56
2023-09-23T05:10:10.302Z,16.61
2023-09-23T05:12:38.166Z,16.59
2023-09-23T05:15:07.185Z,16.54
2023-09-23T05:17:35.126Z,16.49
2023-09-23T05:20:11.081Z,16.55
2023-09-23T05:22:41.132Z,16.54
2023-09-23T05:25:12.842Z,16.33
2023-09-23T05:27:40.901Z,16.31
2023-09-23T05:30:11.517Z,16.24
2023-09-23T05:32:39.821Z,16.30
2023-09-23T05:35:10.559Z,16.35
2023-09-23T05:37:40.711Z,16.36
2023-09-23T05:40:20.058Z,16.32
2023-09-23T05:42:48.975Z,16.25
2023-09-23T05:45:17.138Z,16.23
2023-09-23T05:47:45.281Z,16.18
2023-09-23T05:50:13.762Z,16.15
2023-09-23T05:52:43.246Z,16.31
2023-09-23T05:55:11.525Z,16.36
2023-09-23T05:57:40.113Z,16.44
2023-09-23T06:00:09.276Z,16.52
2023-09-23T06:02:37.225Z,16.58
2023-09-23T06:05:05.461Z,16.65
2023-09-23T06:07:33.628Z,16.59
2023-09-23T06:10:04.979Z,16.59
2023-09-23T06:12:33.686Z,16.63
2023-09-23T06:15:02.579Z,16.57
2023-09-23T06:17:30.720Z,16.56
2023-09-23T06:19:59.072Z,16.52
2023-09-23T06:22:27.722Z,16.61
2023-09-23T06:24:56.293Z,16.51
2023-09-23T06:27:25.629Z,16.52
2023-09-23T06:29:54.253Z,16.58
2023-09-23T06:32:22.222Z,16.63
2023-09-23T06:34:50.276Z,16.58
2023-09-23T06:37:18.175Z,16.59
2023-09-23T06:39:46.000Z,16.72
2023-09-23T06:42:14.000Z,16.80
2023-09-23T06:44:43.437Z,16.68
2023-09-23T06:47:11.435Z,16.68
2023-09-23T06:49:39.835Z,16.83
2023-09-23T06:52:07.858Z,16.92
2023-09-23T06:54:35.824Z,16.91
2023-09-23T06:57:03.894Z,16.97
2023-09-23T06:59:32.115Z,17.04
2023-09-23T07:02:01.452Z,17.03
2023-09-23T07:04:30.269Z,16.78
2023-09-23T07:06:58.330Z,16.76
2023-09-23T07:09:26.293Z,16.89
2023-09-23T07:11:54.781Z,17.14
2023-09-23T07:14:22.672Z,17.20
2023-09-23T07:16:50.678Z,17.31
2023-09-23T07:19:20.323Z,17.44
2023-09-23T07:21:48.411Z,17.12
2023-09-23T07:24:16.229Z,16.98
2023-09-23T07:26:44.123Z,16.94
2023-09-23T07:29:12.135Z,17.14
2023-09-23T07:31:40.006Z,17.28
2023-09-23T07:34:07.928Z,17.34
2023-09-23T07:36:37.155Z,17.38
2023-09-23T07:39:05.456Z,17.28
2023-09-23T07:41:33.635Z,17.35
2023-09-23T07:44:01.489Z,17.72
2023-09-23T07:46:29.442Z,17.89
2023-09-23T07:48:57.536Z,18.90
2023-09-23T07:51:25.364Z,19.81
2023-09-23T07:53:54.709Z,19.45
2023-09-23T07:56:22.701Z,19.08
2023-09-23T07:58:50.602Z,18.94
2023-09-23T08:01:19.220Z,18.65
2023-09-23T08:03:47.280Z,18.45
2023-09-23T08:06:15.364Z,18.37
2023-09-23T08:08:43.301Z,18.03
2023-09-23T08:11:12.624Z,18.01
2023-09-23T08:13:40.550Z,18.05
2023-09-23T08:16:08.694Z,17.96
2023-09-23T08:18:36.739Z,18.20
2023-09-23T08:21:06.829Z,18.59
2023-09-23T08:23:34.730Z,20.36
2023-09-23T08:26:02.727Z,21.00
2023-09-23T08:28:31.976Z,21.22
2023-09-23T08:30:59.821Z,21.40
2023-09-23T08:33:29.162Z,21.39
2023-09-23T08:35:57.181Z,20.83
2023-09-23T08:38:25.157Z,20.33
2023-09-23T08:40:55.233Z,20.25
2023-09-23T08:43:37.317Z,20.84
2023-09-23T08:46:07.254Z,21.90
2023-09-23T08:48:36.733Z,21.78
2023-09-23T08:51:05.567Z,21.44
2023-09-23T08:53:35.909Z,20.64
2023-09-23T08:56:03.872Z,20.18
2023-09-23T08:58:31.796Z,19.68
2023-09-23T09:00:59.754Z,19.63
2023-09-23T09:03:29.311Z,19.89
2023-09-23T09:05:57.426Z,20.04
2023-09-23T09:08:25.398Z,19.92
2023-09-23T09:10:53.482Z,19.72
2023-09-23T09:13:21.525Z,19.38
2023-09-23T09:15:49.754Z,19.49
2023-09-23T09:18:18.617Z,20.07
2023-09-23T09:20:48.075Z,20.49
2023-09-23T09:23:18.305Z,20.44
2023-09-23T09:25:48.276Z,20.22
2023-09-23T09:28:18.253Z,20.56
2023-09-23T09:30:46.503Z,20.41
2023-09-23T09:33:18.271Z,20.35
2023-09-23T09:35:49.061Z,20.38
2023-09-23T09:38:20.310Z,20.51
2023-09-23T09:40:50.431Z,20.39
2023-09-23T09:43:19.263Z,20.39
2023-09-23T09:45:47.865Z,19.96
2023-09-23T09:48:16.899Z,20.02
2023-09-23T09:50:47.648Z,20.09
2023-09-23T09:53:18.232Z,19.90
2023-09-23T09:55:47.415Z,19.92
2023-09-23T09:58:15.300Z,20.36
2023-09-23T10:00:44.736Z,20.00
2023-09-23T10:03:14.654Z,20.21
2023-09-23T10:05:45.204Z,20.32
2023-09-23T10:08:16.961Z,20.44
2023-09-23T10:10:49.585Z,20.28
2023-09-23T10:13:19.708Z,19.84
2023-09-23T10:15:48.028Z,19.69
2023-09-23T10:18:18.618Z,19.88
2023-09-23T10:20:50.505Z,19.80
2023-09-23T10:23:21.660Z,19.52
2023-09-23T10:25:52.292Z,19.63
2023-09-23T10:28:22.824Z,19.75
2023-09-23T10:31:04.697Z,20.05
2023-09-23T10:33:34.996Z,20.43
2023-09-23T10:36:04.441Z,20.12
2023-09-23T10:38:38.996Z,19.87
2023-09-23T10:41:07.422Z,20.02
2023-09-23T10:43:35.392Z,20.48
2023-09-23T10:46:04.036Z,20.56
2023-09-23T10:48:32.660Z,20.17
2023-09-23T10:51:01.710Z,20.12
2023-09-23T10:53:30.100Z,20.26
2023-09-23T10:56:03.227Z,20.11
2023-09-23T10:58:32.672Z,20.51
2023-09-23T11:01:00.746Z,20.55
2023-09-23T11:03:29.577Z,20.17
2023-09-23T11:05:57.820Z,20.16
2023-09-23T11:08:25.838Z,19.87
2023-09-23T11:10:54.101Z,20.06
2023-09-23T11:13:23.532Z,20.13
2023-09-23T11:15:51.616Z,20.26
2023-09-23T11:18:20.153Z,19.94
2023-09-23T11:20:49.234Z,19.87
2023-09-23T11:23:17.514Z,20.05
2023-09-23T11:25:48.408Z,20.07
2023-09-23T11:28:21.036Z,20.22
2023-09-23T11:30:51.900Z,20.27
2023-09-23T11:33:20.240Z,20.38
2023-09-23T11:35:48.306Z,20.54
2023-09-23T11:38:18.349Z,20.55
2023-09-23T11:40:46.653Z,20.46
2023-09-23T11:43:14.600Z,20.31
2023-09-23T11:45:43.487Z,20.50
2023-09-23T11:48:13.385Z,20.64
2023-09-23T11:50:42.121Z,20.81
2023-09-23T11:53:12.202Z,20.66
2023-09-23T11:55:41.014Z,20.68
2023-09-23T11:58:09.336Z,20.41
2023-09-23T12:00:38.104Z,20.11
2023-09-23T12:03:07.023Z,20.19
2023-09-23T12:05:36.341Z,19.79
2023-09-23T12:08:05.402Z,19.86
2023-09-23T12:10:33.531Z,19.59
2023-09-23T12:13:06.623Z,20.02
2023-09-23T12:15:35.355Z,20.16
2023-09-23T12:18:03.751Z,20.03
2023-09-23T12:20:33.533Z,19.88
2023-09-23T12:23:03.142Z,19.99
2023-09-23T12:25:31.478Z,19.85
2023-09-23T12:27:59.592Z,20.12
2023-09-23T12:30:27.924Z,20.10
2023-09-23T12:32:55.966Z,20.20
2023-09-23T12:35:23.944Z,20.34
2023-09-23T12:37:51.836Z,20.28
2023-09-23T12:40:21.123Z,20.20
2023-09-23T12:42:49.086Z,20.40
2023-09-23T12:45:17.834Z,20.30
2023-09-23T12:47:56.921Z,20.24
2023-09-23T12:50:26.553Z,20.25
2023-09-23T12:52:54.754Z,20.27
2023-09-23T12:55:24.585Z,20.06
2023-09-23T12:57:54.120Z,20.26
2023-09-23T13:00:22.526Z,20.06
2023-09-23T13:02:51.062Z,20.14
2023-09-23T13:05:19.273Z,19.71
2023-09-23T13:07:47.533Z,19.56
2023-09-23T13:10:15.445Z,19.47
2023-09-23T13:12:45.612Z,19.78
2023-09-23T13:15:15.067Z,19.69
2023-09-23T13:17:43.276Z,19.75
2023-09-23T13:20:12.748Z,19.53
2023-09-23T13:22:40.739Z,19.40
2023-09-23T13:25:09.552Z,19.45
2023-09-23T13:27:37.548Z,19.69
2023-09-23T13:30:10.683Z,19.89
2023-09-23T13:32:40.447Z,20.00
2023-09-23T13:35:10.820Z,20.07
2023-09-23T13:37:39.112Z,20.17
2023-09-23T13:40:08.329Z,19.84
2023-09-23T13:42:36.171Z,19.60
2023-09-23T13:45:05.976Z,19.84
2023-09-23T13:47:36.083Z,19.86
2023-09-23T13:50:04.291Z,19.91
2023-09-23T13:52:32.244Z,20.04
2023-09-23T13:55:00.181Z,19.84
2023-09-23T13:57:28.073Z,19.52
2023-09-23T13:59:55.986Z,19.35
2023-09-23T14:02:24.476Z,19.10
2023-09-23T14:04:53.895Z,19.15
2023-09-23T14:07:21.768Z,19.18
2023-09-23T14:09:50.619Z,19.14
2023-09-23T14:12:18.571Z,18.92
2023-09-23T14:14:46.479Z,19.19
2023-09-23T14:17:14.478Z,19.38
2023-09-23T14:19:42.362Z,19.62
2023-09-23T14:22:11.652Z,19.47
2023-09-23T14:24:39.822Z,19.35
2023-09-23T14:27:07.758Z,19.18
2023-09-23T14:29:35.914Z,19.23
2023-09-23T14:32:05.114Z,19.15
2023-09-23T14:34:33.089Z,19.21
2023-09-23T14:37:00.991Z,19.22
2023-09-23T14:39:32.957Z,19.35
2023-09-23T14:42:00.868Z,19.42
2023-09-23T14:44:28.811Z,19.52
2023-09-23T14:46:56.795Z,19.39
2023-09-23T14:49:24.725Z,19.47
2023-09-23T14:51:52.781Z,19.62
2023-09-23T14:54:20.680Z,19.71
2023-09-23T14:56:49.951Z,19.68
2023-09-23T14:59:17.894Z,19.72
2023-09-23T15:01:47.498Z,19.66
2023-09-23T15:04:15.560Z,19.53
2023-09-23T15:06:43.813Z,19.52
2023-09-23T15:09:13.645Z,19.28
2023-09-23T15:11:41.769Z,19.38
2023-09-23T15:14:11.330Z,19.54
2023-09-23T15:16:39.303Z,19.63
2023-09-23T15:19:07.586Z,19.66
2023-09-23T15:21:35.498Z,19.54
2023-09-23T15:24:03.534Z,19.47
2023-09-23T15:26:31.434Z,19.20
2023-09-23T15:28:59.692Z,18.98
2023-09-23T15:31:28.969Z,19.04
2023-09-23T15:33:57.735Z,18.95
2023-09-23T15:36:25.704Z,18.90
2023-09-23T15:38:55.174Z,18.91
2023-09-23T15:41:23.123Z,18.85
2023-09-23T15:43:52.226Z,18.78
2023-09-23T15:46:20.399Z,19.00
2023-09-23T15:48:50.183Z,19.07
2023-09-23T15:51:20.877Z,18.92
2023-09-23T15:53:48.935Z,18.95
2023-09-23T15:56:16.977Z,18.93
2023-09-23T15:58:46.181Z,18.89
2023-09-23T16:01:15.201Z,18.75
2023-09-23T16:03:43.212Z,18.79
2023-09-23T16:06:12.647Z,18.59
2023-09-23T16:08:40.580Z,18.63
2023-09-23T16:11:09.286Z,18.56
2023-09-23T16:13:37.249Z,18.43
2023-09-23T16:16:05.335Z,18.45
2023-09-23T16:18:33.542Z,18.29
2023-09-23T16:21:01.476Z,17.91
2023-09-23T16:23:31.121Z,17.89
2023-09-23T16:25:58.993Z,17.98
2023-09-23T16:28:26.931Z,18.06
2023-09-23T16:30:54.809Z,17.90
2023-09-23T16:33:22.857Z,17.72
2023-09-23T16:35:51.269Z,17.65
2023-09-23T16:38:20.122Z,17.52
2023-09-23T16:40:49.417Z,17.48
2023-09-23T16:43:17.359Z,17.43
2023-09-23T16:45:46.643Z,17.33
2023-09-23T16:48:15.063Z,17.27
2023-09-23T16:50:43.798Z,17.11
2023-09-23T16:53:12.133Z,17.04
2023-09-23T16:55:40.225Z,17.03
2023-09-23T16:58:09.508Z,16.95
2023-09-23T17:00:37.456Z,16.94
2023-09-23T17:03:05.708Z,16.91
2023-09-23T17:05:33.860Z,16.93
2023-09-23T17:08:02.035Z,16.91
2023-09-23T17:10:30.222Z,16.83
2023-09-23T17:12:58.292Z,16.84
2023-09-23T17:15:27.821Z,16.88
2023-09-23T17:17:55.778Z,16.82
2023-09-23T17:20:24.779Z,16.84
2023-09-23T17:22:54.101Z,16.75
2023-09-23T17:25:22.002Z,16.69
2023-09-23T17:27:50.038Z,16.75
2023-09-23T17:30:18.103Z,16.83
2023-09-23T17:32:47.600Z,16.83
2023-09-23T17:35:16.921Z,16.82
2023-09-23T17:37:44.878Z,16.80
2023-09-23T17:40:12.871Z,16.78
2023-09-23T17:42:40.874Z,16.77
2023-09-23T17:45:09.737Z,16.78
2023-09-23T17:47:37.702Z,16.74
2023-09-23T17:50:08.927Z,16.72
2023-09-23T17:52:36.814Z,16.80
2023-09-23T17:55:05.122Z,16.75
2023-09-23T17:57:33.232Z,16.79
2023-09-23T18:00:01.232Z,16.76
2023-09-23T18:02:29.345Z,16.71
2023-09-23T18:04:57.369Z,16.62
2023-09-23T18:07:26.672Z,16.70
2023-09-23T18:09:54.839Z,16.65
2023-09-23T18:12:23.168Z,16.63
2023-09-23T18:14:51.396Z,16.64
2023-09-23T18:17:19.501Z,16.62
2023-09-23T18:19:47.626Z,16.62
2023-09-23T18:22:15.495Z,16.63
2023-09-23T18:24:44.846Z,16.54
2023-09-23T18:27:12.891Z,16.48
2023-09-23T18:29:40.863Z,16.46
2023-09-23T18:32:14.449Z,16.47
2023-09-23T18:34:42.699Z,16.35
2023-09-23T18:37:10.838Z,16.28
2023-09-23T18:39:39.106Z,16.33
2023-09-23T18:42:08.444Z,16.37
2023-09-23T18:44:36.717Z,16.26
2023-09-23T18:47:05.506Z,16.26
2023-09-23T18:49:33.464Z,16.28
2023-09-23T18:52:03.826Z,16.34
2023-09-23T18:54:33.011Z,16.34
2023-09-23T18:57:00.908Z,16.39
2023-09-23T18:59:30.502Z,16.41
2023-09-23T19:01:58.549Z,16.38
2023-09-23T19:04:27.250Z,16.38
2023-09-23T19:06:55.818Z,16.38
2023-09-23T19:09:23.864Z,16.34
2023-09-23T19:11:51.801Z,16.35
2023-09-23T19:14:20.015Z,16.37
2023-09-23T19:16:49.662Z,16.36
2023-09-23T19:19:18.549Z,16.34
2023-09-23T19:21:46.449Z,16.33
2023-09-23T19:24:14.401Z,16.28
2023-09-23T19:26:55.706Z,16.24
2023-09-23T19:29:25.691Z,16.24
2023-09-23T19:31:56.843Z,16.27
2023-09-23T19:34:27.609Z,16.17
2023-09-23T19:36:56.919Z,16.18
2023-09-23T19:39:26.707Z,16.11
2023-09-23T19:41:55.093Z,16.16
2023-09-23T19:44:23.240Z,16.19
2023-09-23T19:46:51.336Z,16.15
2023-09-23T19:49:20.812Z,16.18
2023-09-23T19:51:49.022Z,16.16
2023-09-23T19:54:17.002Z,16.19
2023-09-23T19:56:45.779Z,16.25
2023-09-23T19:59:13.990Z,16.31
2023-09-23T20:01:42.610Z,16.32
2023-09-23T20:04:11.886Z,16.37
2023-09-23T20:06:42.464Z,16.33
2023-09-23T20:09:10.962Z,16.40
2023-09-23T20:11:39.262Z,16.40
2023-09-23T20:14:07.343Z,16.36
2023-09-23T20:16:35.315Z,16.36
2023-09-23T20:19:03.340Z,16.30
2023-09-23T20:21:31.587Z,16.27
2023-09-23T20:24:00.875Z,16.25
2023-09-23T20:26:28.888Z,16.27
2023-09-23T20:28:56.826Z,16.21
2023-09-23T20:31:26.205Z,16.24
2023-09-23T20:33:55.023Z,16.23
2023-09-23T20:36:23.495Z,16.20
2023-09-23T20:38:53.230Z,16.19
2023-09-23T20:41:22.962Z,16.16
2023-09-23T20:43:51.205Z,16.19
2023-09-23T20:46:19.324Z,16.18
2023-09-23T20:48:47.334Z,16.18
2023-09-23T20:51:15.500Z,16.12
2023-09-23T20:53:43.453Z,16.06
2023-09-23T20:56:12.290Z,16.06
2023-09-23T20:58:41.657Z,16.00
2023-09-23T21:01:09.563Z,15.99
2023-09-23T21:03:37.655Z,15.99
2023-09-23T21:06:07.033Z,15.98
2023-09-23T21:08:34.972Z,15.94
2023-09-23T21:11:02.936Z,15.95
2023-09-23T21:13:30.801Z,15.92
2023-09-23T21:16:01.270Z,15.92
2023-09-23T21:18:29.441Z,15.87
2023-09-23T21:20:57.425Z,15.86
2023-09-23T21:23:25.457Z,15.89
2023-09-23T21:25:53.756Z,15.85
2023-09-23T21:28:21.747Z,15.87
2023-09-23T21:30:49.908Z,15.90
2023-09-23T21:33:19.355Z,15.88
2023-09-23T21:35:47.617Z,15.88
2023-09-23T21:38:15.567Z,15.86
2023-09-23T21:40:44.153Z,15.83
2023-09-23T21:43:12.076Z,15.78
2023-09-23T21:45:40.655Z,15.83
2023-09-23T21:48:09.967Z,15.85
2023-09-23T21:50:39.469Z,15.83
2023-09-23T21:53:07.759Z,15.86
2023-09-23T21:55:36.052Z,15.82
2023-09-23T21:58:04.172Z,15.83
2023-09-23T22:00:34.972Z,15.83
2023-09-23T22:03:04.585Z,15.76
2023-09-23T22:05:32.790Z,15.78
2023-09-23T22:08:03.118Z,15.81
2023-09-23T22:10:31.250Z,15.78
2023-09-23T22:13:00.240Z,15.73
2023-09-23T22:15:29.522Z,15.75
2023-09-23T22:17:59.164Z,15.75
2023-09-23T22:20:29.313Z,15.80
2023-09-23T22:22:57.790Z,15.87
2023-09-23T22:25:27.248Z,15.88
2023-09-23T22:27:55.858Z,15.95
2023-09-23T22:30:26.916Z,15.99
2023-09-23T22:32:56.652Z,15.92
2023-09-23T22:35:26.169Z,15.93
2023-09-23T22:37:54.219Z,15.95
2023-09-23T22:40:23.482Z,15.98
2023-09-23T22:42:52.777Z,16.06
2023-09-23T22:45:36.114Z,16.15
2023-09-23T22:48:07.615Z,16.17
2023-09-23T22:50:36.016Z,16.19
2023-09-23T22:53:06.132Z,16.14
2023-09-23T22:55:34.929Z,16.12
2023-09-23T22:58:04.556Z,16.11
2023-09-23T23:00:36.084Z,16.11
2023-09-23T23:03:07.425Z,16.13
2023-09-23T23:05:35.962Z,16.15
2023-09-23T23:08:05.999Z,16.11
2023-09-23T23:10:33.856Z,16.10
2023-09-23T23:13:01.863Z,16.08
2023-09-23T23:15:31.193Z,16.11
2023-09-23T23:18:00.148Z,16.09
2023-09-23T23:20:29.273Z,16.03
2023-09-23T23:22:57.647Z,15.97
2023-09-23T23:25:25.981Z,15.92
2023-09-23T23:27:53.968Z,15.89
2023-09-23T23:30:22.250Z,15.87
2023-09-23T23:32:53.067Z,15.89
2023-09-23T23:35:23.543Z,15.95
2023-09-23T23:37:52.570Z,15.99
2023-09-23T23:40:22.664Z,15.94
2023-09-23T23:42:50.953Z,15.96
2023-09-23T23:45:21.365Z,15.89
2023-09-23T23:47:49.463Z,15.84
2023-09-23T23:50:21.540Z,15.84
2023-09-23T23:52:50.187Z,15.81
2023-09-23T23:55:18.869Z,15.79
2023-09-23T23:57:46.786Z,15.74
